Time;durP1;ratioP1;P1;durP2;ratioP2;P2;SDS_P1;SDS_P2;PMS_P1;PMS_P2;Temp;Humidity;BMP_temperature;BMP_pressure;BME280_temperature;BME280_humidity;BME280_pressure;Samples;Min_cycle;Max_cycle;Signal;HPM_P1;HPM_P2
2024/01/26 00:02:04;;;;;;;14.65;7.07;;;205.40;2252.80;;;;;;4766649;30;20047;-76
2024/01/26 00:04:30;;;;;;;17.92;8.15;;;205.40;2252.80;;;;;;4766035;30;20035;-75
2024/01/26 00:06:56;;;;;;;14.35;7.00;;;205.50;2252.80;;;;;;4750170;30;20035;-76
2024/01/26 00:09:22;;;;;;;25.00;9.68;;;205.40;2252.80;;;;;;4765773;30;20100;-75
2024/01/26 00:11:49;;;;;;;30.40;18.17;;;205.40;2252.80;;;;;;4766251;30;20036;-75
2024/01/26 00:14:14;;;;;;;13.90;7.00;;;205.30;2252.80;;;;;;4766026;30;20039;-76
2024/01/26 00:16:40;;;;;;;20.35;11.73;;;205.40;2252.80;;;;;;4766234;30;20145;-76
2024/01/26 00:19:06;;;;;;;14.90;8.13;;;205.50;2252.80;;;;;;4766269;30;20047;-77
2024/01/26 00:21:33;;;;;;;11.55;5.80;;;205.50;2252.80;;;;;;4754496;30;20020;-76
2024/01/26 00:24:02;;;;;;;13.27;7.80;;;205.50;2252.80;;;;;;4765678;30;20169;-74
2024/01/26 00:26:28;;;;;;;10.43;5.53;;;205.40;2252.80;;;;;;4751311;30;20119;-70
2024/01/26 00:28:53;;;;;;;23.90;10.07;;;205.40;2252.80;;;;;;4767842;30;20085;-71
2024/01/26 00:31:19;;;;;;;14.80;7.05;;;205.30;2252.80;;;;;;4749962;30;20024;-72
2024/01/26 00:33:46;;;;;;;11.68;5.78;;;205.40;2252.80;;;;;;4766637;30;20046;-71
2024/01/26 00:36:12;;;;;;;20.02;8.60;;;205.30;2252.80;;;;;;4757523;30;20052;-70
2024/01/26 00:38:39;;;;;;;29.42;16.08;;;205.30;2252.80;;;;;;4755604;30;20092;-71
2024/01/26 00:41:05;;;;;;;22.88;8.20;;;205.30;2252.80;;;;;;4767697;30;20035;-71
2024/01/26 00:43:31;;;;;;;63.03;51.25;;;205.30;2252.80;;;;;;4765795;30;20361;-71
2024/01/26 00:45:56;;;;;;;18.50;7.15;;;205.30;2252.80;;;;;;4756204;30;20064;-71
2024/01/26 00:48:22;;;;;;;34.20;18.92;;;205.30;2252.80;;;;;;4769892;30;20024;-74
2024/01/26 00:50:51;;;;;;;15.43;10.70;;;205.30;2252.80;;;;;;4763391;30;20023;-72
2024/01/26 00:53:17;;;;;;;16.48;7.90;;;205.30;2252.80;;;;;;4775933;30;20039;-76
2024/01/26 00:55:44;;;;;;;26.70;17.25;;;205.30;2252.80;;;;;;4768870;30;20047;-71
2024/01/26 00:58:10;;;;;;;19.35;10.38;;;205.30;2252.80;;;;;;4759260;30;20602;-76
2024/01/26 01:00:36;;;;;;;18.95;11.43;;;205.30;2252.80;;;;;;4757823;30;20063;-71
2024/01/26 01:03:02;;;;;;;14.10;8.75;;;205.30;2252.80;;;;;;4756207;30;20024;-70
2024/01/26 01:05:28;;;;;;;75.25;59.65;;;205.20;2252.80;;;;;;4762812;30;20035;-70
2024/01/26 01:07:54;;;;;;;35.83;22.95;;;205.20;2252.80;;;;;;4753235;30;20105;-71
2024/01/26 01:10:20;;;;;;;15.52;8.52;;;205.20;2252.80;;;;;;4757821;30;20078;-71
2024/01/26 01:12:45;;;;;;;10.82;6.35;;;205.20;2252.80;;;;;;4769522;30;20032;-69
2024/01/26 01:15:11;;;;;;;9.13;3.85;;;205.30;2252.80;;;;;;4754777;30;20044;-70
2024/01/26 01:17:43;;;;;;;19.13;8.98;;;205.20;2252.80;;;;;;4756525;30;20047;-70
2024/01/26 01:20:10;;;;;;;13.77;5.85;;;205.30;2252.80;;;;;;4763737;30;20111;-71
2024/01/26 01:22:40;;;;;;;10.30;5.05;;;205.20;2252.80;;;;;;4767383;30;20020;-70
2024/01/26 01:25:06;;;;;;;9.98;4.88;;;205.20;2252.80;;;;;;4762140;30;20036;-71
2024/01/26 01:27:32;;;;;;;17.65;13.40;;;205.40;2252.80;;;;;;4768832;30;20087;-71
2024/01/26 01:29:59;;;;;;;30.42;22.60;;;205.10;2252.80;;;;;;4747360;30;20155;-71
2024/01/26 01:32:25;;;;;;;15.68;10.10;;;205.10;2252.80;;;;;;4754774;30;20074;-70
2024/01/26 01:34:54;;;;;;;14.60;5.22;;;205.20;2252.80;;;;;;4757038;30;20064;-70
2024/01/26 01:37:20;;;;;;;11.82;4.53;;;205.20;2252.80;;;;;;4767078;30;20085;-75
2024/01/26 01:39:46;;;;;;;15.57;7.63;;;205.20;2252.80;;;;;;4762023;30;20087;-70
2024/01/26 01:42:14;;;;;;;12.68;4.15;;;205.30;2252.80;;;;;;4759132;30;20024;-70
2024/01/26 01:44:47;;;;;;;10.88;5.28;;;205.40;2252.80;;;;;;4763548;30;20036;-75
2024/01/26 01:47:14;;;;;;;12.07;4.60;;;205.40;2252.80;;;;;;4763519;30;20125;-76
2024/01/26 01:49:42;;;;;;;8.35;4.25;;;205.40;2252.80;;;;;;4759503;30;20115;-69
2024/01/26 01:52:10;;;;;;;9.90;4.85;;;205.40;2252.80;;;;;;4754263;30;20032;-71
2024/01/26 01:54:37;;;;;;;9.18;4.55;;;205.30;2252.80;;;;;;4766820;30;20142;-73
2024/01/26 01:57:04;;;;;;;11.05;4.47;;;205.20;2252.80;;;;;;4754068;30;20036;-74
2024/01/26 01:59:31;;;;;;;23.95;16.05;;;205.20;2252.80;;;;;;4757950;30;20058;-71
2024/01/26 02:01:57;;;;;;;18.10;11.00;;;205.10;2252.80;;;;;;4768615;30;20034;-70
2024/01/26 02:04:23;;;;;;;15.63;7.45;;;205.10;2252.80;;;;;;4771765;30;20039;-71
2024/01/26 02:06:55;;;;;;;22.58;8.43;;;205.10;2252.80;;;;;;4753698;30;20025;-70
2024/01/26 02:09:20;;;;;;;20.60;9.60;;;205.10;2252.80;;;;;;4764855;30;20036;-70
2024/01/26 02:11:46;;;;;;;14.23;4.88;;;205.10;2252.80;;;;;;4761415;30;20031;-70
2024/01/26 02:14:12;;;;;;;10.27;5.65;;;205.10;2252.80;;;;;;4769483;30;20509;-75
2024/01/26 02:16:38;;;;;;;27.50;12.52;;;205.10;2252.80;;;;;;4753829;30;20092;-71
2024/01/26 02:19:03;;;;;;;14.95;7.53;;;205.10;2252.80;;;;;;4758398;30;20040;-70
2024/01/26 02:21:29;;;;;;;43.10;28.40;;;205.20;2252.80;;;;;;4753704;30;20043;-69
2024/01/26 02:23:55;;;;;;;19.20;7.85;;;205.10;2252.80;;;;;;4759384;30;20039;-77
2024/01/26 02:26:21;;;;;;;13.95;4.40;;;205.10;2252.80;;;;;;4770329;30;20032;-69
2024/01/26 02:28:47;;;;;;;9.68;5.80;;;205.10;2252.80;;;;;;4758841;30;20036;-78
2024/01/26 02:31:12;;;;;;;14.63;7.95;;;204.80;2252.80;;;;;;4762917;30;20092;-71
2024/01/26 02:33:38;;;;;;;10.02;4.00;;;205.10;2252.80;;;;;;4771374;30;20565;-71
2024/01/26 02:36:04;;;;;;;14.20;4.40;;;205.20;2252.80;;;;;;4754646;30;20078;-72
2024/01/26 02:38:30;;;;;;;12.23;8.35;;;205.20;2252.80;;;;;;4756389;30;20117;-70
2024/01/26 02:40:55;;;;;;;9.95;4.38;;;205.10;2252.80;;;;;;4739879;30;20570;-70
2024/01/26 02:43:21;;;;;;;9.50;4.18;;;205.10;2252.80;;;;;;4756030;30;20058;-70
2024/01/26 02:45:47;;;;;;;15.85;5.07;;;205.10;2252.80;;;;;;4762880;30;20440;-75
2024/01/26 02:48:14;;;;;;;12.68;4.72;;;205.00;2252.80;;;;;;4773086;30;20039;-71
2024/01/26 02:50:40;;;;;;;12.07;3.65;;;205.00;2252.80;;;;;;4771362;30;20020;-78
2024/01/26 02:53:05;;;;;;;8.45;5.25;;;205.00;2252.80;;;;;;4772109;30;20483;-71
2024/01/26 02:55:31;;;;;;;7.55;3.05;;;204.90;2252.80;;;;;;4769523;30;20096;-70
2024/01/26 02:57:57;;;;;;;11.07;3.80;;;204.90;2252.80;;;;;;4771939;30;20043;-71
2024/01/26 03:00:23;;;;;;;12.40;4.65;;;204.80;2252.80;;;;;;4772982;30;20024;-71
2024/01/26 03:02:48;;;;;;;8.35;3.72;;;204.90;2252.80;;;;;;4773431;30;20106;-71
2024/01/26 03:05:14;;;;;;;7.80;3.78;;;204.90;2252.80;;;;;;4774617;30;20118;-71
2024/01/26 03:07:40;;;;;;;9.30;3.70;;;204.80;2252.80;;;;;;4769924;30;20040;-70
2024/01/26 03:10:06;;;;;;;17.75;7.82;;;204.90;2252.80;;;;;;4772593;30;20027;-72
2024/01/26 03:12:33;;;;;;;8.75;4.72;;;204.80;2252.80;;;;;;4771045;30;20067;-73
2024/01/26 03:15:00;;;;;;;7.45;3.65;;;204.90;2252.80;;;;;;4769198;30;20666;-70
2024/01/26 03:17:26;;;;;;;9.27;3.15;;;204.80;2252.80;;;;;;4772570;30;20038;-71
2024/01/26 03:19:52;;;;;;;9.35;4.20;;;204.80;2252.80;;;;;;4772523;30;20027;-70
2024/01/26 03:22:18;;;;;;;8.65;3.53;;;204.80;2252.80;;;;;;4772307;30;20038;-70
2024/01/26 03:24:45;;;;;;;8.85;3.70;;;180.10;2252.80;;;;;;4771089;30;20066;-71
2024/01/26 03:27:10;;;;;;;7.50;3.17;;;180.10;2252.80;;;;;;4772328;30;20476;-71
2024/01/26 03:29:36;;;;;;;9.27;3.30;;;180.10;2252.80;;;;;;4770715;30;20119;-76
2024/01/26 03:32:02;;;;;;;10.98;4.55;;;180.10;2252.80;;;;;;4774456;30;20019;-71
2024/01/26 03:34:28;;;;;;;13.88;4.85;;;180.10;2252.80;;;;;;4773176;30;20066;-71
2024/01/26 03:36:53;;;;;;;14.65;5.00;;;180.10;2252.80;;;;;;4773017;30;20028;-74
2024/01/26 03:39:19;;;;;;;11.55;7.95;;;180.00;2252.80;;;;;;4772768;30;20043;-71
2024/01/26 03:41:45;;;;;;;12.15;9.98;;;180.00;2252.80;;;;;;4770065;30;20028;-70
2024/01/26 03:44:11;;;;;;;8.68;4.93;;;179.90;2252.80;;;;;;4753111;30;20511;-71
2024/01/26 03:46:42;;;;;;;7.20;3.67;;;179.80;2252.80;;;;;;4752542;30;20052;-77
2024/01/26 03:49:09;;;;;;;8.23;3.10;;;179.80;2252.80;;;;;;4771314;30;20091;-71
2024/01/26 03:51:36;;;;;;;11.10;3.67;;;179.90;2252.80;;;;;;4772855;30;20035;-70
2024/01/26 03:54:02;;;;;;;10.35;4.03;;;179.70;2252.80;;;;;;4791735;24;20066;-72
2024/01/26 03:56:27;;;;;;;6.25;3.80;;;179.70;2252.80;;;;;;4795287;29;20090;-70
2024/01/26 03:58:53;;;;;;;7.35;3.25;;;179.70;2252.80;;;;;;4808463;29;20051;-71
2024/01/26 04:01:20;;;;;;;13.30;4.47;;;179.70;2252.80;;;;;;4808596;29;20486;-71
2024/01/26 04:03:46;;;;;;;15.43;6.43;;;179.70;2252.80;;;;;;4811036;29;20114;-71
2024/01/26 04:06:12;;;;;;;20.60;12.00;;;179.70;2252.80;;;;;;4809977;29;20042;-71
2024/01/26 04:08:38;;;;;;;14.23;6.30;;;179.60;2252.80;;;;;;4811777;29;20086;-71
2024/01/26 04:11:04;;;;;;;14.40;5.15;;;179.60;2252.80;;;;;;4810842;29;20474;-70
2024/01/26 04:13:30;;;;;;;12.10;4.82;;;179.50;2252.80;;;;;;4809965;29;20027;-72
2024/01/26 04:15:56;;;;;;;15.32;3.88;;;179.50;2252.80;;;;;;4811949;29;20058;-71
2024/01/26 04:18:22;;;;;;;8.82;3.20;;;179.40;2252.80;;;;;;4810073;29;20027;-74
2024/01/26 04:20:48;;;;;;;11.15;4.38;;;179.40;2252.80;;;;;;4795519;29;20024;-71
2024/01/26 04:23:15;;;;;;;9.68;3.67;;;179.40;2252.80;;;;;;4784056;30;20232;-79
2024/01/26 04:25:41;;;;;;;11.05;5.75;;;179.40;2252.80;;;;;;4791534;29;20036;-75
2024/01/26 04:28:07;;;;;;;6.97;3.58;;;179.40;2252.80;;;;;;4791963;30;20028;-71
2024/01/26 04:30:34;;;;;;;5.75;3.22;;;179.40;2252.80;;;;;;4798357;29;20026;-70
2024/01/26 04:33:01;;;;;;;8.73;4.57;;;179.40;2252.80;;;;;;4809347;29;20033;-70
2024/01/26 04:35:27;;;;;;;12.55;3.83;;;179.40;2252.80;;;;;;4809125;29;20043;-70
2024/01/26 04:37:52;;;;;;;11.38;6.35;;;179.50;2252.80;;;;;;4807040;29;20034;-70
2024/01/26 04:40:19;;;;;;;12.93;5.03;;;179.40;2252.80;;;;;;4796039;29;20080;-71
2024/01/26 04:42:45;;;;;;;15.80;6.30;;;179.40;2252.80;;;;;;4793359;30;20456;-71
2024/01/26 04:45:10;;;;;;;9.57;6.07;;;179.40;2252.80;;;;;;4792876;29;20047;-70
2024/01/26 04:47:36;;;;;;;7.88;4.07;;;179.40;2252.80;;;;;;4805833;29;20125;-70
2024/01/26 04:50:02;;;;;;;8.02;3.28;;;179.40;2252.80;;;;;;4809555;29;20079;-72
2024/01/26 04:52:28;;;;;;;10.90;4.43;;;179.40;2252.80;;;;;;4791296;30;20059;-71
2024/01/26 04:54:54;;;;;;;15.05;8.07;;;179.30;2252.80;;;;;;4790886;30;20039;-78
2024/01/26 04:57:20;;;;;;;11.68;6.03;;;179.20;2252.80;;;;;;4792403;30;20028;-72
2024/01/26 04:59:46;;;;;;;14.70;6.93;;;179.20;2252.80;;;;;;4791611;29;20039;-75
2024/01/26 05:02:12;;;;;;;12.77;6.47;;;154.50;2252.80;;;;;;4787455;30;20031;-71
2024/01/26 05:04:38;;;;;;;13.43;5.80;;;154.50;2252.80;;;;;;4791284;29;20035;-70
2024/01/26 05:07:03;;;;;;;14.35;5.07;;;154.50;2252.80;;;;;;4811571;29;20368;-77
2024/01/26 05:09:29;;;;;;;12.57;5.22;;;154.50;2252.80;;;;;;4814423;29;20031;-71
2024/01/26 05:11:55;;;;;;;13.65;6.57;;;154.40;2252.80;;;;;;4815552;29;20062;-76
2024/01/26 05:14:22;;;;;;;12.82;6.25;;;154.40;2252.80;;;;;;4810594;29;20051;-81
2024/01/26 05:16:48;;;;;;;12.88;5.28;;;154.40;2252.80;;;;;;4812863;29;20033;-70
2024/01/26 05:19:14;;;;;;;10.63;4.35;;;154.30;2252.80;;;;;;4811732;29;20015;-79
2024/01/26 05:21:40;;;;;;;8.23;4.18;;;154.40;2252.80;;;;;;4810705;29;20027;-75
2024/01/26 05:24:06;;;;;;;11.48;4.07;;;154.30;2252.80;;;;;;4811929;29;20031;-71
2024/01/26 05:26:32;;;;;;;11.27;4.10;;;154.30;2252.80;;;;;;4795469;30;20039;-71
2024/01/26 05:28:58;;;;;;;8.73;3.50;;;154.40;2252.80;;;;;;4793264;30;20058;-77
2024/01/26 05:31:24;;;;;;;20.55;4.47;;;154.40;2252.80;;;;;;4792251;30;20055;-78
2024/01/26 05:33:49;;;;;;;12.18;3.97;;;154.30;2252.80;;;;;;4793333;30;20031;-73
2024/01/26 05:36:15;;;;;;;7.90;3.97;;;154.20;2252.80;;;;;;4790890;30;20054;-71
2024/01/26 05:38:41;;;;;;;7.18;4.13;;;154.20;2252.80;;;;;;4792916;30;20019;-71
2024/01/26 05:41:07;;;;;;;9.70;4.35;;;154.20;2252.80;;;;;;4791118;30;20059;-71
2024/01/26 05:43:32;;;;;;;11.38;4.85;;;154.10;2252.80;;;;;;4791515;30;20046;-70
2024/01/26 05:45:58;;;;;;;8.80;4.75;;;154.00;2252.80;;;;;;4791050;29;20042;-70
2024/01/26 05:48:24;;;;;;;8.48;4.70;;;154.00;2252.80;;;;;;4807852;29;20114;-71
2024/01/26 05:50:50;;;;;;;9.77;4.03;;;154.10;2252.80;;;;;;4810096;29;20039;-70
2024/01/26 05:53:16;;;;;;;12.57;4.80;;;154.10;2252.80;;;;;;4808356;29;20080;-76
2024/01/26 05:55:41;;;;;;;8.80;4.13;;;154.10;2252.80;;;;;;4811323;29;20041;-71
2024/01/26 05:58:07;;;;;;;6.70;3.30;;;154.10;2252.80;;;;;;4808338;29;20019;-75
2024/01/26 06:00:33;;;;;;;11.35;5.95;;;154.10;2252.80;;;;;;4798458;29;20096;-70
2024/01/26 06:02:59;;;;;;;22.50;18.10;;;154.10;2252.80;;;;;;4793025;30;20114;-70
2024/01/26 06:05:24;;;;;;;6.25;3.83;;;154.10;2252.80;;;;;;4791325;29;20039;-71
2024/01/26 06:07:50;;;;;;;6.25;3.40;;;154.20;2252.80;;;;;;4794235;30;20035;-71
2024/01/26 06:10:16;;;;;;;9.25;4.22;;;154.20;2252.80;;;;;;4794198;30;20031;-71
2024/01/26 06:12:44;;;;;;;9.23;3.63;;;154.20;2252.80;;;;;;4792579;30;20023;-70
2024/01/26 06:15:10;;;;;;;9.50;3.05;;;154.30;2252.80;;;;;;4789788;30;20119;-71
2024/01/26 06:17:36;;;;;;;9.73;4.45;;;154.30;2252.80;;;;;;4796841;29;20106;-70
2024/01/26 06:20:05;;;;;;;9.77;4.82;;;154.40;2252.80;;;;;;4812680;29;20066;-72
2024/01/26 06:22:32;;;;;;;14.95;6.72;;;154.40;2252.80;;;;;;4809329;29;20073;-71
2024/01/26 06:24:57;;;;;;;45.00;22.30;;;154.40;2252.80;;;;;;4801739;29;20050;-70
2024/01/26 06:27:23;;;;;;;153.82;79.25;;;154.40;2252.80;;;;;;4811734;29;20031;-74
2024/01/26 06:29:49;;;;;;;11.43;5.50;;;154.50;2252.80;;;;;;4810195;29;20489;-71
2024/01/26 06:32:16;;;;;;;46.58;30.38;;;179.20;2252.80;;;;;;4817758;29;20057;-71
2024/01/26 06:34:42;;;;;;;50.45;34.83;;;154.50;2252.80;;;;;;4823125;29;20023;-80
2024/01/26 06:37:08;;;;;;;18.55;7.95;;;179.20;2252.80;;;;;;4817252;24;20048;-71
2024/01/26 06:39:33;;;;;;;10.00;6.55;;;179.30;2252.80;;;;;;4803187;30;20031;-73
2024/01/26 06:41:59;;;;;;;77.05;38.20;;;179.30;2252.80;;;;;;4812235;24;20159;-80
2024/01/26 06:44:25;;;;;;;389.38;262.38;;;179.30;2252.80;;;;;;4799113;24;20059;-74
2024/01/26 06:46:51;;;;;;;29.35;18.33;;;179.30;2252.80;;;;;;4782763;30;20036;-70
2024/01/26 06:49:17;;;;;;;25.08;18.60;;;179.30;2252.80;;;;;;4772805;30;20032;-70
2024/01/26 06:51:43;;;;;;;15.70;13.80;;;179.40;2252.80;;;;;;4776406;30;20031;-76
2024/01/26 06:54:09;;;;;;;11.90;6.65;;;179.40;2252.80;;;;;;4789466;30;20364;-71
2024/01/26 06:56:35;;;;;;;11.70;6.07;;;179.40;2252.80;;;;;;4803894;29;20019;-78
2024/01/26 06:59:01;;;;;;;13.15;5.57;;;179.50;2252.80;;;;;;4790582;29;20035;-71
2024/01/26 07:01:27;;;;;;;13.07;9.05;;;179.50;2252.80;;;;;;4781965;24;20035;-72
2024/01/26 07:03:53;;;;;;;15.95;10.77;;;179.50;2252.80;;;;;;4789816;29;20031;-70
2024/01/26 07:06:19;;;;;;;13.48;9.50;;;179.50;2252.80;;;;;;4790019;29;20475;-70
2024/01/26 07:08:45;;;;;;;11.23;6.20;;;179.60;2252.80;;;;;;4782411;30;20028;-70
2024/01/26 07:11:11;;;;;;;12.30;7.68;;;179.70;2252.80;;;;;;4773086;30;20039;-70
2024/01/26 07:13:36;;;;;;;18.90;11.05;;;179.80;2252.80;;;;;;4775213;30;20032;-70
2024/01/26 07:16:02;;;;;;;18.73;10.77;;;180.00;2252.80;;;;;;4790911;29;20076;-73
2024/01/26 07:18:28;;;;;;;62.05;40.08;;;180.00;2252.80;;;;;;4801426;30;20027;-74
2024/01/26 07:20:55;;;;;;;17.40;8.02;;;179.90;2252.80;;;;;;4780865;30;20090;-74
2024/01/26 07:23:21;;;;;;;21.63;11.80;;;180.00;2252.80;;;;;;4778734;30;20040;-80
2024/01/26 07:25:47;;;;;;;18.90;11.32;;;180.00;2252.80;;;;;;4785254;30;20122;-76
2024/01/26 07:28:18;;;;;;;37.47;29.08;;;180.10;2252.80;;;;;;4785967;30;20043;-75
2024/01/26 07:30:44;;;;;;;16.25;8.55;;;180.10;2252.80;;;;;;4785128;30;20035;-70
2024/01/26 07:33:10;;;;;;;16.08;10.38;;;180.10;2252.80;;;;;;4777674;30;20063;-72
2024/01/26 07:35:36;;;;;;;24.63;14.38;;;180.10;2252.80;;;;;;4773292;30;20039;-70
2024/01/26 07:38:01;;;;;;;24.88;13.43;;;180.00;2252.80;;;;;;4772451;29;20036;-70
2024/01/26 07:40:27;;;;;;;33.85;19.27;;;180.10;2252.80;;;;;;4773188;30;20110;-70
2024/01/26 07:42:53;;;;;;;33.28;22.95;;;180.10;2252.80;;;;;;4772628;30;20157;-76
2024/01/26 07:45:19;;;;;;;22.05;10.98;;;180.10;2252.80;;;;;;4767384;30;20422;-75
2024/01/26 07:47:45;;;;;;;23.77;12.25;;;180.10;2252.80;;;;;;4762096;30;20452;-75
2024/01/26 07:50:11;;;;;;;25.55;16.63;;;180.10;2252.80;;;;;;4760113;30;20046;-76
2024/01/26 07:52:37;;;;;;;40.00;23.98;;;180.10;2252.80;;;;;;4744754;30;20131;-77
2024/01/26 07:55:03;;;;;;;22.15;8.30;;;204.90;2252.80;;;;;;4738135;30;20059;-76
2024/01/26 07:57:29;;;;;;;15.50;7.95;;;204.90;2252.80;;;;;;4766831;30;20028;-76
2024/01/26 07:59:55;;;;;;;12.18;6.35;;;205.00;2252.80;;;;;;4766403;30;20030;-75
2024/01/26 08:02:21;;;;;;;10.23;5.05;;;230.60;2252.80;;;;;;4766409;30;20138;-76
2024/01/26 08:04:46;;;;;;;36.08;24.63;;;282.30;2099.20;;;;;;4766978;30;20099;-76
2024/01/26 08:07:14;;;;;;;57.00;41.72;;;332.90;2022.40;;;;;;4766506;30;20032;-76
2024/01/26 08:09:40;;;;;;;11.93;6.28;;;358.60;1920.00;;;;;;4765764;30;20028;-78
2024/01/26 08:12:06;;;;;;;11.38;6.43;;;384.00;1843.20;;;;;;4749210;30;20039;-78
2024/01/26 08:14:31;;;;;;;18.25;7.28;;;384.00;1792.00;;;;;;4764960;30;20028;-78
2024/01/26 08:16:57;;;;;;;19.20;15.10;;;384.50;1766.40;;;;;;4765960;30;20032;-79
2024/01/26 08:19:23;;;;;;;9.98;4.43;;;410.50;1715.20;;;;;;4748715;30;20082;-77
2024/01/26 08:21:49;;;;;;;11.32;4.43;;;435.90;1638.40;;;;;;4763902;30;20058;-77
2024/01/26 08:24:14;;;;;;;9.85;7.47;;;461.00;1612.80;;;;;;4761779;30;20032;-78
2024/01/26 08:26:40;;;;;;;35.25;25.05;;;461.00;1638.40;;;;;;4763511;30;20047;-78
2024/01/26 08:29:06;;;;;;;21.45;19.52;;;461.40;1587.20;;;;;;4765639;30;20028;-79
2024/01/26 08:31:32;;;;;;;11.88;8.18;;;461.70;1587.20;;;;;;4748989;30;20036;-78
2024/01/26 08:33:58;;;;;;;10.30;5.10;;;461.60;1561.60;;;;;;4749477;30;20471;-78
2024/01/26 08:36:23;;;;;;;10.23;8.13;;;461.70;1561.60;;;;;;4762768;30;20477;-78
2024/01/26 08:38:52;;;;;;;10.90;4.00;;;487.00;1510.40;;;;;;4740066;30;20064;-77
2024/01/26 08:41:17;;;;;;;8.40;3.97;;;487.00;1484.80;;;;;;4749394;30;20028;-77
2024/01/26 08:43:43;;;;;;;9.77;5.25;;;486.80;1510.40;;;;;;4765468;30;20020;-77
2024/01/26 08:46:10;;;;;;;7.57;4.60;;;487.00;1510.40;;;;;;4748654;30;20135;-78
2024/01/26 08:48:36;;;;;;;11.80;7.72;;;512.30;1459.20;;;;;;4749402;30;20110;-77
2024/01/26 08:51:02;;;;;;;9.88;6.25;;;512.30;1459.20;;;;;;4759961;30;20139;-79
2024/01/26 08:53:28;;;;;;;15.18;6.88;;;512.30;1433.60;;;;;;4765155;30;20034;-77
2024/01/26 08:55:54;;;;;;;21.98;13.15;;;486.80;1484.80;;;;;;4748849;30;20051;-78
2024/01/26 08:58:20;;;;;;;16.27;10.77;;;461.50;1536.00;;;;;;4748740;30;20040;-78
2024/01/26 09:00:46;;;;;;;12.32;7.93;;;487.00;1484.80;;;;;;4765161;30;20031;-76
2024/01/26 09:03:12;;;;;;;9.80;5.32;;;512.40;1433.60;;;;;;4753885;30;20048;-78
2024/01/26 09:05:37;;;;;;;11.30;6.70;;;512.50;1433.60;;;;;;4748156;30;20052;-78
2024/01/26 09:08:03;;;;;;;10.98;5.93;;;512.40;1433.60;;;;;;4749428;30;20119;-78
2024/01/26 09:10:29;;;;;;;15.23;7.55;;;512.10;1433.60;;;;;;4765261;30;20441;-79
2024/01/26 09:12:55;;;;;;;6.80;4.57;;;512.20;1408.00;;;;;;4764794;30;20028;-80
2024/01/26 09:15:21;;;;;;;9.35;6.00;;;512.90;1408.00;;;;;;4763273;30;20043;-78
2024/01/26 09:17:47;;;;;;;9.80;7.53;;;512.40;1408.00;;;;;;4764959;30;20024;-78
2024/01/26 09:20:13;;;;;;;8.30;5.00;;;538.10;1382.40;;;;;;4749171;30;20039;-78
2024/01/26 09:22:38;;;;;;;10.95;5.72;;;512.30;1408.00;;;;;;4748670;30;20515;-79
2024/01/26 09:25:05;;;;;;;19.17;17.27;;;512.30;1408.00;;;;;;4765501;30;20122;-78
2024/01/26 09:27:30;;;;;;;27.10;17.02;;;512.40;1408.00;;;;;;4771946;30;20107;-78
2024/01/26 09:29:56;;;;;;;16.15;10.57;;;487.00;1433.60;;;;;;4754532;30;20135;-78
2024/01/26 09:32:22;;;;;;;14.82;8.65;;;512.00;1433.60;;;;;;4743976;30;20377;-78
2024/01/26 09:34:48;;;;;;;10.95;6.60;;;537.80;1408.00;;;;;;4767494;30;20038;-78
2024/01/26 09:37:14;;;;;;;11.88;10.02;;;512.90;1382.40;;;;;;4751378;30;20047;-79
2024/01/26 09:39:41;;;;;;;15.15;9.23;;;512.60;1382.40;;;;;;4768233;30;20034;-76
2024/01/26 09:42:07;;;;;;;17.17;8.77;;;537.70;1408.00;;;;;;4768792;30;20134;-78
2024/01/26 09:44:33;;;;;;;22.00;14.38;;;487.10;1433.60;;;;;;4768664;30;20519;-79
2024/01/26 09:47:01;;;;;;;20.88;17.05;;;512.00;1408.00;;;;;;4768753;30;20462;-79
2024/01/26 09:49:31;;;;;;;68.80;60.97;;;487.00;1459.20;;;;;;4767861;30;20107;-78
2024/01/26 09:51:57;;;;;;;6.93;4.93;;;461.50;1484.80;;;;;;4758745;30;20032;-78
2024/01/26 09:54:23;;;;;;;7.70;6.93;;;461.20;1484.80;;;;;;4762994;30;20115;-78
2024/01/26 09:56:51;;;;;;;8.85;5.55;;;436.10;1484.80;;;;;;4748853;30;20039;-78
2024/01/26 09:59:17;;;;;;;10.93;7.75;;;435.70;1536.00;;;;;;4768259;30;20023;-79
2024/01/26 10:01:46;;;;;;;14.27;11.75;;;435.90;1536.00;;;;;;4762963;30;20125;-80
2024/01/26 10:04:12;;;;;;;30.30;27.02;;;435.70;1536.00;;;;;;4764050;30;20127;-79
2024/01/26 10:06:38;;;;;;;9.27;4.63;;;435.40;1561.60;;;;;;4768259;30;20064;-79
2024/01/26 10:09:04;;;;;;;9.40;7.65;;;435.90;1536.00;;;;;;4751796;30;20415;-77
2024/01/26 10:11:31;;;;;;;11.77;5.80;;;436.10;1536.00;;;;;;4751947;30;20032;-78
2024/01/26 10:13:57;;;;;;;10.75;6.28;;;436.10;1510.40;;;;;;4768027;30;20038;-79
2024/01/26 10:16:23;;;;;;;15.80;11.60;;;460.80;1561.60;;;;;;4750988;30;20458;-77
2024/01/26 10:18:49;;;;;;;11.30;3.88;;;460.90;1536.00;;;;;;4759564;30;20357;-78
2024/01/26 10:21:16;;;;;;;8.57;4.75;;;435.50;1536.00;;;;;;4765434;30;20039;-82
2024/01/26 10:23:42;;;;;;;7.35;4.70;;;410.00;1587.20;;;;;;4767536;30;20105;-76
2024/01/26 10:26:11;;;;;;;10.73;4.60;;;384.00;1664.00;;;;;;4751614;30;20051;-78
2024/01/26 10:28:37;;;;;;;9.30;4.38;;;358.80;1715.20;;;;;;4760373;30;20063;-78
2024/01/26 10:31:05;;;;;;;9.23;4.18;;;333.70;1740.80;;;;;;4758991;30;20073;-79
2024/01/26 10:33:34;;;;;;;8.68;4.82;;;333.40;1766.40;;;;;;4763046;30;20051;-78
2024/01/26 10:36:01;;;;;;;6.40;3.60;;;333.70;1792.00;;;;;;4772064;30;20052;-78
2024/01/26 10:38:36;;;;;;;27.00;16.77;;;333.00;1817.60;;;;;;4769491;30;20106;-78
2024/01/26 10:41:03;;;;;;;10.73;7.72;;;332.80;1817.60;;;;;;4764199;30;20032;-78
2024/01/26 10:43:32;;;;;;;13.55;5.45;;;307.80;1817.60;;;;;;4764724;30;20117;-78
2024/01/26 10:46:00;;;;;;;9.23;5.47;;;307.80;1843.20;;;;;;4754861;30;20075;-80
2024/01/26 10:48:30;;;;;;;27.23;20.17;;;307.60;1843.20;;;;;;4777029;30;20523;-79
2024/01/26 10:50:56;;;;;;;12.40;8.60;;;307.60;1843.20;;;;;;4790484;30;20099;-77
2024/01/26 10:53:22;;;;;;;14.93;8.48;;;307.60;1868.80;;;;;;4766222;30;20058;-77
2024/01/26 10:55:51;;;;;;;8.73;4.65;;;307.80;1843.20;;;;;;4754326;30;20463;-78
2024/01/26 10:58:17;;;;;;;9.77;5.40;;;307.80;1843.20;;;;;;4758204;30;20037;-77
2024/01/26 11:00:43;;;;;;;16.40;8.00;;;307.60;1868.80;;;;;;4763514;30;20031;-77
2024/01/26 11:03:09;;;;;;;7.47;4.03;;;307.40;1868.80;;;;;;4767443;30;20085;-77
2024/01/26 11:05:35;;;;;;;8.23;3.70;;;307.30;1894.40;;;;;;4766867;30;20392;-76
2024/01/26 11:08:14;;;;;;;18.05;8.90;;;307.30;1894.40;;;;;;4767836;30;20031;-76
2024/01/26 11:10:41;;;;;;;23.17;16.17;;;307.30;1868.80;;;;;;4757487;30;20466;-77
2024/01/26 11:13:09;;;;;;;14.10;8.25;;;307.40;1894.40;;;;;;4749500;30;20400;-76
2024/01/26 11:15:36;;;;;;;11.68;6.25;;;307.30;1894.40;;;;;;4754264;30;20423;-76
2024/01/26 11:18:03;;;;;;;19.35;10.52;;;307.50;1894.40;;;;;;4759546;30;20147;-78
2024/01/26 11:20:39;;;;;;;11.40;4.82;;;307.50;1894.40;;;;;;4776466;30;20391;-78
2024/01/26 11:23:15;;;;;;;15.88;10.25;;;307.30;1894.40;;;;;;4773660;30;20080;-78
2024/01/26 11:25:45;;;;;;;15.10;7.50;;;307.50;1894.40;;;;;;4755843;30;20032;-81
2024/01/26 11:28:25;;;;;;;33.65;18.95;;;307.50;1920.00;;;;;;4770135;30;20518;-77
2024/01/26 11:30:56;;;;;;;55.63;35.47;;;307.40;1894.40;;;;;;4757514;30;20056;-79
2024/01/26 11:33:22;;;;;;;13.80;6.03;;;307.50;1920.00;;;;;;4756389;30;20495;-78
2024/01/26 11:35:49;;;;;;;15.60;4.97;;;307.50;1894.40;;;;;;4763041;30;20032;-77
2024/01/26 11:38:18;;;;;;;10.82;5.78;;;307.50;1894.40;;;;;;4764517;30;20048;-79
2024/01/26 11:40:49;;;;;;;11.65;6.43;;;307.50;1894.40;;;;;;4767057;30;20108;-77
2024/01/26 11:43:27;;;;;;;11.15;5.72;;;307.70;1894.40;;;;;;4779429;30;20065;-77
2024/01/26 11:45:57;;;;;;;9.68;4.82;;;307.70;1868.80;;;;;;4775052;30;20059;-77
2024/01/26 11:48:23;;;;;;;8.20;3.95;;;307.80;1868.80;;;;;;4784012;24;20039;-77
2024/01/26 11:50:49;;;;;;;8.68;4.60;;;307.80;1868.80;;;;;;4790960;30;20051;-79
2024/01/26 11:53:18;;;;;;;12.63;5.93;;;307.80;1868.80;;;;;;4793682;30;20035;-78
2024/01/26 11:55:45;;;;;;;14.75;7.35;;;307.80;1868.80;;;;;;4783137;30;20039;-77
2024/01/26 11:58:11;;;;;;;30.27;14.82;;;307.80;1894.40;;;;;;4779850;30;20571;-79
2024/01/26 12:00:37;;;;;;;7.55;4.03;;;308.10;1868.80;;;;;;4793747;30;20043;-77
2024/01/26 12:03:06;;;;;;;15.32;8.95;;;308.10;1868.80;;;;;;4789276;30;20147;-77
2024/01/26 12:05:38;;;;;;;83.00;46.00;;;332.80;1868.80;;;;;;4783621;30;20040;-75